createdAt,value
2022-10-25T00:01:53.386Z,0.93
2022-10-25T00:06:54.148Z,1.45
2022-10-25T00:09:22.061Z,3.30
2022-10-25T00:11:49.993Z,1.42
2022-10-25T00:14:20.594Z,2.05
2022-10-25T00:16:48.572Z,0.80
2022-10-25T00:19:16.458Z,1.30
2022-10-25T00:21:44.337Z,1.45
2022-10-25T00:24:13.112Z,2.28
2022-10-25T00:26:41.508Z,1.55
2022-10-25T00:29:10.250Z,0.60
2022-10-25T00:31:40.112Z,2.83
2022-10-25T00:34:08.072Z,1.10
2022-10-25T00:36:35.983Z,1.15
2022-10-25T00:39:03.905Z,3.20
2022-10-25T00:41:34.449Z,1.52
2022-10-25T00:44:35.665Z,1.27
2022-10-25T00:47:11.419Z,1.23
2022-10-25T00:49:39.382Z,2.60
2022-10-25T00:52:08.961Z,1.33
2022-10-25T00:54:40.481Z,0.30
2022-10-25T00:57:14.018Z,0.43
2022-10-25T00:59:42.437Z,0.68
2022-10-25T01:02:12.717Z,0.82
2022-10-25T01:04:41.464Z,0.82
2022-10-25T01:07:09.316Z,0.75
2022-10-25T01:09:39.229Z,1.05
2022-10-25T01:12:07.636Z,1.52
2022-10-25T01:14:43.001Z,0.90
2022-10-25T01:17:20.674Z,0.50
2022-10-25T01:20:11.809Z,1.85
2022-10-25T01:22:43.770Z,1.95
2022-10-25T01:25:41.082Z,0.63
2022-10-25T01:28:14.898Z,0.80
2022-10-25T01:31:16.082Z,1.25
2022-10-25T01:33:51.202Z,1.13
2022-10-25T01:36:26.749Z,1.20
2022-10-25T01:39:01.994Z,0.95
2022-10-25T01:41:37.398Z,1.00
2022-10-25T01:44:17.044Z,0.60
2022-10-25T01:46:51.504Z,0.60
2022-10-25T01:49:29.093Z,0.60
2022-10-25T01:51:56.988Z,0.88
2022-10-25T01:54:27.033Z,0.90
2022-10-25T01:57:30.474Z,1.80
2022-10-25T02:00:09.400Z,1.45
2022-10-25T02:03:09.161Z,0.85
2022-10-25T02:05:47.316Z,1.00
2022-10-25T02:08:22.597Z,1.70
2022-10-25T02:10:56.430Z,1.83
2022-10-25T02:13:33.940Z,1.17
2022-10-25T02:16:06.895Z,1.70
2022-10-25T02:18:39.984Z,1.75
2022-10-25T02:21:08.509Z,1.45
2022-10-25T02:23:38.330Z,1.58
2022-10-25T02:26:08.631Z,2.08
2022-10-25T02:28:40.097Z,1.55
2022-10-25T02:31:09.763Z,1.92
2022-10-25T02:33:39.284Z,2.35
2022-10-25T02:36:09.600Z,3.05
2022-10-25T02:38:37.632Z,2.40
2022-10-25T02:41:06.849Z,3.10
2022-10-25T02:43:34.905Z,2.17
2022-10-25T02:46:07.000Z,3.45
2022-10-25T02:48:35.045Z,4.43
2022-10-25T02:51:04.894Z,3.45
2022-10-25T02:53:33.298Z,3.28
2022-10-25T02:56:02.629Z,3.60
2022-10-25T02:58:31.878Z,3.13
2022-10-25T03:01:00.625Z,3.75
2022-10-25T03:03:29.406Z,4.50
2022-10-25T03:05:57.995Z,5.40
2022-10-25T03:11:00.840Z,5.38
2022-10-25T03:13:28.754Z,3.95
2022-10-25T03:15:56.617Z,4.90
2022-10-25T03:18:24.506Z,4.82
2022-10-25T03:20:52.751Z,5.63
2022-10-25T03:23:20.619Z,4.60
2022-10-25T03:25:54.248Z,4.88
2022-10-25T03:28:23.025Z,7.63
2022-10-25T03:30:51.341Z,6.15
2022-10-25T03:33:19.329Z,5.47
2022-10-25T03:35:51.009Z,5.20
2022-10-25T03:38:18.988Z,7.78
2022-10-25T03:40:47.049Z,6.53
2022-10-25T03:43:16.546Z,7.05
2022-10-25T03:45:44.492Z,5.32
2022-10-25T03:48:12.366Z,5.70
2022-10-25T03:50:40.324Z,5.57
2022-10-25T03:55:41.849Z,5.25
2022-10-25T03:58:09.813Z,6.75
2022-10-25T04:00:39.236Z,7.55
2022-10-25T04:05:40.133Z,6.30
2022-10-25T04:08:07.994Z,4.93
2022-10-25T04:10:35.893Z,5.60
2022-10-25T04:13:03.964Z,6.30
2022-10-25T04:15:31.903Z,5.55
2022-10-25T04:18:01.181Z,4.07
2022-10-25T04:20:29.128Z,5.80
2022-10-25T04:22:58.037Z,5.03
2022-10-25T04:25:28.807Z,5.43
2022-10-25T04:27:56.800Z,4.40
2022-10-25T04:30:24.653Z,7.75
2022-10-25T04:32:52.656Z,5.18
2022-10-25T04:35:22.117Z,4.43
2022-10-25T04:37:51.911Z,5.05
2022-10-25T04:40:24.018Z,4.30
2022-10-25T04:42:52.764Z,4.90
2022-10-25T04:45:20.660Z,5.25
2022-10-25T04:47:48.568Z,5.25
2022-10-25T04:50:16.653Z,5.13
2022-10-25T04:52:46.050Z,4.88
2022-10-25T04:55:14.137Z,4.55
2022-10-25T04:57:42.136Z,4.50
2022-10-25T05:00:11.641Z,5.05
2022-10-25T05:02:39.668Z,6.70
2022-10-25T05:05:08.282Z,5.05
2022-10-25T05:07:36.280Z,6.38
2022-10-25T05:10:05.947Z,4.60
2022-10-25T05:12:33.878Z,3.97
2022-10-25T05:15:01.787Z,4.68
2022-10-25T05:17:29.996Z,4.43
2022-10-25T05:19:58.001Z,5.40
2022-10-25T05:22:26.200Z,5.20
2022-10-25T05:24:54.085Z,4.95
2022-10-25T05:27:23.526Z,4.45
2022-10-25T05:29:51.405Z,5.18
2022-10-25T05:32:19.286Z,5.57
2022-10-25T05:34:47.180Z,4.22
2022-10-25T05:37:15.319Z,4.07
2022-10-25T05:39:43.173Z,4.13
2022-10-25T05:42:11.049Z,5.07
2022-10-25T05:44:40.311Z,7.30
2022-10-25T05:47:08.239Z,5.00
2022-10-25T05:49:39.617Z,3.90
2022-10-25T05:52:07.547Z,5.03
2022-10-25T05:54:35.426Z,4.47
2022-10-25T05:57:03.304Z,5.70
2022-10-25T05:59:31.235Z,4.35
2022-10-25T06:02:00.668Z,5.25
2022-10-25T06:04:28.907Z,6.78
2022-10-25T06:06:58.117Z,6.80
2022-10-25T06:09:25.980Z,4.85
2022-10-25T06:11:53.863Z,5.15
2022-10-25T06:14:21.721Z,6.60
2022-10-25T06:16:49.604Z,4.80
2022-10-25T06:19:18.834Z,7.38
2022-10-25T06:21:46.884Z,5.85
2022-10-25T06:24:14.765Z,5.55
2022-10-25T06:26:42.642Z,6.80
2022-10-25T06:29:10.674Z,5.60
2022-10-25T06:31:38.562Z,6.45
2022-10-25T06:34:06.888Z,7.00
2022-10-25T06:36:36.104Z,4.88
2022-10-25T06:39:06.728Z,6.55
2022-10-25T06:41:36.988Z,5.28
2022-10-25T06:44:06.764Z,7.18
2022-10-25T06:46:57.850Z,6.03
2022-10-25T06:49:24.980Z,6.93
2022-10-25T06:51:54.387Z,8.73
2022-10-25T06:54:22.288Z,7.88
2022-10-25T06:56:51.308Z,5.90
2022-10-25T06:59:20.480Z,5.38
2022-10-25T07:01:50.028Z,8.38
2022-10-25T07:04:18.169Z,7.82
2022-10-25T07:06:48.798Z,6.22
2022-10-25T07:09:21.045Z,7.60
2022-10-25T07:11:48.911Z,7.10
2022-10-25T07:14:16.949Z,9.00
2022-10-25T07:16:44.808Z,10.85
2022-10-25T07:19:12.874Z,6.30
2022-10-25T07:21:40.762Z,6.13
2022-10-25T07:24:11.163Z,8.00
2022-10-25T07:26:41.818Z,8.35
2022-10-25T07:29:10.017Z,7.35
2022-10-25T07:31:40.997Z,8.60
2022-10-25T07:34:09.017Z,14.40
2022-10-25T07:36:36.874Z,5.25
2022-10-25T07:39:04.947Z,6.60
2022-10-25T07:41:32.894Z,5.47
2022-10-25T07:44:02.364Z,13.35
2022-10-25T07:46:30.260Z,6.95
2022-10-25T07:48:58.157Z,5.65
2022-10-25T07:51:26.241Z,5.93
2022-10-25T07:53:54.596Z,6.22
2022-10-25T07:56:23.637Z,4.55
2022-10-25T07:58:52.259Z,4.85
2022-10-25T08:01:23.182Z,7.25
2022-10-25T08:03:51.524Z,6.45
2022-10-25T08:06:19.745Z,5.80
2022-10-25T08:08:47.653Z,5.82
2022-10-25T08:11:16.149Z,4.20
2022-10-25T08:13:44.153Z,4.32
2022-10-25T08:16:12.052Z,7.05
2022-10-25T08:18:41.286Z,3.65
2022-10-25T08:21:09.162Z,5.55
2022-10-25T08:23:37.013Z,4.55
2022-10-25T08:26:05.086Z,5.90
2022-10-25T08:28:32.941Z,6.97
2022-10-25T08:31:01.945Z,5.57
2022-10-25T08:33:30.878Z,4.75
2022-10-25T08:36:02.983Z,4.28
2022-10-25T08:38:31.284Z,6.05
2022-10-25T08:41:07.334Z,5.07
2022-10-25T08:44:06.009Z,6.15
2022-10-25T08:46:39.026Z,7.13
2022-10-25T08:49:14.431Z,7.03
2022-10-25T08:51:47.909Z,11.50
2022-10-25T08:54:24.983Z,6.03
2022-10-25T08:57:14.314Z,7.78
2022-10-25T08:59:46.268Z,9.07
2022-10-25T09:02:20.536Z,10.07
2022-10-25T09:04:48.697Z,7.85
2022-10-25T09:07:38.451Z,7.32
2022-10-25T09:10:19.342Z,6.43
2022-10-25T09:12:57.411Z,9.25
2022-10-25T09:15:40.470Z,3.92
2022-10-25T09:18:16.647Z,7.28
2022-10-25T09:20:51.262Z,5.20
2022-10-25T09:23:27.862Z,6.05
2022-10-25T09:26:04.017Z,5.18
2022-10-25T09:28:52.164Z,5.60
2022-10-25T09:31:24.189Z,7.60
2022-10-25T09:34:00.011Z,7.28
2022-10-25T09:36:37.222Z,4.72
2022-10-25T09:39:15.700Z,4.45
2022-10-25T09:41:47.809Z,4.95
2022-10-25T09:44:22.645Z,6.30
2022-10-25T09:46:55.853Z,6.15
2022-10-25T09:49:29.875Z,5.20
2022-10-25T09:52:03.285Z,7.90
2022-10-25T09:54:39.321Z,7.43
2022-10-25T09:57:07.276Z,5.65
2022-10-25T09:59:35.453Z,3.88
2022-10-25T10:02:03.564Z,6.43
2022-10-25T10:04:36.306Z,7.30
2022-10-25T10:07:09.566Z,4.50
2022-10-25T10:09:45.940Z,6.88
2022-10-25T10:12:21.570Z,4.65
2022-10-25T10:14:57.288Z,5.15
2022-10-25T10:17:26.125Z,4.88
2022-10-25T10:20:13.810Z,6.38
2022-10-25T10:22:51.662Z,4.65
2022-10-25T10:25:23.664Z,4.55
2022-10-25T10:27:54.267Z,5.82
2022-10-25T10:30:25.581Z,7.22
2022-10-25T10:32:58.864Z,7.55
2022-10-25T10:35:30.469Z,6.60
2022-10-25T10:38:24.522Z,6.47
2022-10-25T10:40:56.504Z,7.55
2022-10-25T10:43:29.024Z,6.13
2022-10-25T10:46:02.991Z,5.43
2022-10-25T10:48:41.759Z,10.20
2022-10-25T10:51:25.162Z,4.90
2022-10-25T10:53:59.785Z,7.38
2022-10-25T10:56:30.730Z,8.77
2022-10-25T10:58:59.189Z,6.40
2022-10-25T11:01:33.510Z,9.43
2022-10-25T11:04:03.357Z,3.08
2022-10-25T11:06:33.550Z,5.05
2022-10-25T11:09:17.692Z,9.18
2022-10-25T11:12:06.837Z,6.30
2022-10-25T11:14:34.998Z,4.68
2022-10-25T11:17:09.808Z,6.72
2022-10-25T11:20:00.547Z,9.45
2022-10-25T11:22:37.330Z,4.65
2022-10-25T11:25:20.865Z,7.30
2022-10-25T11:28:02.470Z,4.93
2022-10-25T11:30:37.675Z,4.75
2022-10-25T11:33:27.474Z,3.63
2022-10-25T11:36:11.376Z,7.00
2022-10-25T11:38:55.392Z,6.43
2022-10-25T11:41:38.941Z,6.30
2022-10-25T11:44:27.027Z,5.40
2022-10-25T11:47:00.157Z,10.60
2022-10-25T11:49:39.488Z,9.30
2022-10-25T11:52:28.359Z,4.30
2022-10-25T11:55:08.192Z,7.90
2022-10-25T11:57:47.568Z,4.93
2022-10-25T12:00:20.072Z,5.97
2022-10-25T12:03:11.589Z,4.47
2022-10-25T12:05:48.377Z,4.65
2022-10-25T12:08:27.063Z,4.95
2022-10-25T12:10:59.101Z,6.55
2022-10-25T12:13:32.277Z,4.43
2022-10-25T12:16:03.562Z,3.15
2022-10-25T12:18:36.527Z,5.82
2022-10-25T12:21:05.652Z,3.95
2022-10-25T12:23:42.105Z,3.50
2022-10-25T12:26:17.575Z,4.18
2022-10-25T12:28:47.520Z,4.68
2022-10-25T12:31:20.200Z,5.07
2022-10-25T12:33:54.581Z,3.90
2022-10-25T12:36:28.992Z,4.47
2022-10-25T12:39:00.088Z,4.97
2022-10-25T12:41:31.446Z,4.35
2022-10-25T12:44:13.544Z,4.10
2022-10-25T12:46:57.580Z,5.65
2022-10-25T12:49:51.265Z,5.15
2022-10-25T12:52:35.273Z,4.68
2022-10-25T12:55:39.745Z,3.70
2022-10-25T12:58:30.358Z,4.07
2022-10-25T13:01:16.405Z,5.03
2022-10-25T13:04:07.700Z,3.38
2022-10-25T13:06:38.462Z,3.60
2022-10-25T13:09:09.473Z,3.78
2022-10-25T13:11:40.250Z,3.17
2022-10-25T13:14:20.027Z,2.75
2022-10-25T13:16:48.024Z,3.00
2022-10-25T13:19:49.344Z,2.65
2022-10-25T13:22:39.735Z,3.63
2022-10-25T13:25:18.437Z,3.00
2022-10-25T13:28:20.509Z,4.38
2022-10-25T13:30:48.497Z,3.58
2022-10-25T13:33:33.497Z,5.60
2022-10-25T13:36:06.798Z,3.33
2022-10-25T13:38:39.607Z,4.30
2022-10-25T13:41:19.731Z,4.50
2022-10-25T13:44:02.658Z,3.35
2022-10-25T13:46:35.135Z,3.60
2022-10-25T13:49:05.967Z,4.55
2022-10-25T13:51:35.354Z,7.90
2022-10-25T13:54:08.393Z,4.68
2022-10-25T13:56:50.854Z,4.43
2022-10-25T13:59:37.822Z,3.70
2022-10-25T14:02:18.138Z,4.18
2022-10-25T14:04:46.530Z,3.83
2022-10-25T14:07:48.109Z,5.15
2022-10-25T14:10:34.251Z,5.05
2022-10-25T14:13:17.310Z,4.38
2022-10-25T14:15:51.208Z,6.15
2022-10-25T14:18:23.008Z,6.70
2022-10-25T14:20:55.585Z,4.55
2022-10-25T14:23:29.889Z,5.43
2022-10-25T14:26:00.173Z,5.00
2022-10-25T14:28:29.776Z,6.32
2022-10-25T14:30:58.864Z,3.38
2022-10-25T14:33:29.892Z,3.90
2022-10-25T14:36:07.730Z,4.30
2022-10-25T14:38:50.061Z,6.43
2022-10-25T14:41:22.354Z,4.85
2022-10-25T14:43:50.300Z,5.40
2022-10-25T14:46:19.338Z,6.95
2022-10-25T14:48:48.782Z,5.18
2022-10-25T14:51:21.839Z,5.55
2022-10-25T14:53:55.203Z,3.15
2022-10-25T14:56:28.754Z,5.78
2022-10-25T14:58:57.560Z,5.97
2022-10-25T15:01:25.848Z,6.90
2022-10-25T15:03:58.001Z,6.32
2022-10-25T15:06:28.365Z,5.20
2022-10-25T15:09:29.072Z,7.40
2022-10-25T15:12:07.631Z,5.80
2022-10-25T15:14:35.536Z,8.07
2022-10-25T15:17:04.024Z,8.00
2022-10-25T15:19:31.926Z,5.97
2022-10-25T15:22:09.386Z,5.93
2022-10-25T15:24:48.750Z,5.28
2022-10-25T15:27:27.924Z,7.70
2022-10-25T15:29:56.166Z,6.20
2022-10-25T15:32:26.453Z,8.98
2022-10-25T15:34:56.635Z,5.90
2022-10-25T15:37:26.570Z,6.32
2022-10-25T15:39:57.218Z,5.97
2022-10-25T15:42:27.191Z,7.80
2022-10-25T15:44:55.470Z,7.15
2022-10-25T15:47:31.812Z,4.82
2022-10-25T15:50:00.704Z,9.48
2022-10-25T15:52:28.879Z,7.93
2022-10-25T15:54:58.309Z,5.60
2022-10-25T15:57:27.370Z,6.72
2022-10-25T15:59:55.310Z,7.30
2022-10-25T16:02:27.062Z,9.52
2022-10-25T16:04:55.276Z,7.82
2022-10-25T16:07:23.414Z,5.40
2022-10-25T16:09:51.344Z,6.32
2022-10-25T16:12:26.202Z,2.58
2022-10-25T16:14:54.484Z,7.05
2022-10-25T16:17:22.346Z,6.13
2022-10-25T16:19:50.268Z,7.97
2022-10-25T16:22:18.317Z,10.05
2022-10-25T16:24:46.363Z,6.70
2022-10-25T16:27:14.869Z,7.57
2022-10-25T16:29:44.139Z,6.43
2022-10-25T16:32:12.139Z,10.77
2022-10-25T16:34:42.582Z,7.13
2022-10-25T16:37:11.814Z,6.63
2022-10-25T16:39:40.054Z,7.38
2022-10-25T16:42:29.477Z,6.75
2022-10-25T16:44:59.698Z,8.60
2022-10-25T16:47:28.453Z,7.10
2022-10-25T16:49:56.400Z,9.40
2022-10-25T16:52:24.273Z,6.70
2022-10-25T16:54:52.249Z,5.40
2022-10-25T16:57:20.124Z,4.53
2022-10-25T16:59:48.014Z,4.60
2022-10-25T17:02:19.871Z,8.32
2022-10-25T17:04:48.699Z,6.63
2022-10-25T17:07:16.701Z,7.20
2022-10-25T17:09:44.859Z,3.30
2022-10-25T17:12:13.013Z,6.07
2022-10-25T17:14:40.918Z,6.43
2022-10-25T17:17:08.875Z,7.70
2022-10-25T17:19:38.307Z,7.45
2022-10-25T17:22:06.190Z,6.18
2022-10-25T17:24:37.374Z,7.35
2022-10-25T17:29:38.661Z,6.25
2022-10-25T17:32:06.930Z,6.47
2022-10-25T17:34:34.917Z,3.75
2022-10-25T17:37:04.229Z,5.25
2022-10-25T17:39:32.156Z,5.68
2022-10-25T17:42:00.086Z,8.23
2022-10-25T17:44:28.029Z,4.05
2022-10-25T17:46:58.322Z,7.82
2022-10-25T17:49:28.929Z,8.45
2022-10-25T17:51:56.862Z,3.50
2022-10-25T17:54:26.470Z,5.97
2022-10-25T17:56:58.522Z,5.55
2022-10-25T17:59:27.726Z,6.32
2022-10-25T18:01:55.946Z,5.82
2022-10-25T18:04:24.712Z,4.70
2022-10-25T18:06:52.831Z,4.78
2022-10-25T18:09:20.784Z,3.80
2022-10-25T18:11:50.275Z,5.65
2022-10-25T18:14:18.448Z,5.30
2022-10-25T18:16:46.408Z,4.25
2022-10-25T18:19:15.427Z,6.63
2022-10-25T18:21:43.355Z,6.07
2022-10-25T18:24:13.711Z,5.15
2022-10-25T18:26:42.426Z,4.15
2022-10-25T18:29:12.261Z,4.95
2022-10-25T18:31:40.971Z,7.45
2022-10-25T18:34:09.000Z,6.57
2022-10-25T18:36:38.154Z,5.53
2022-10-25T18:39:06.366Z,5.35
2022-10-25T18:41:37.567Z,3.88
2022-10-25T18:44:10.270Z,4.63
2022-10-25T18:46:42.511Z,9.48
2022-10-25T18:49:13.119Z,3.35
2022-10-25T18:51:41.724Z,4.18
2022-10-25T18:54:12.401Z,3.70
2022-10-25T18:56:40.457Z,3.92
2022-10-25T18:59:10.553Z,4.20
2022-10-25T19:01:40.794Z,3.65
2022-10-25T19:04:10.405Z,2.00
2022-10-25T19:06:38.616Z,1.65
2022-10-25T19:09:07.176Z,2.17
2022-10-25T19:11:35.252Z,2.05
2022-10-25T19:14:04.215Z,1.95
2022-10-25T19:16:32.559Z,1.60
2022-10-25T19:19:03.426Z,0.70
2022-10-25T19:21:32.947Z,2.15
2022-10-25T19:24:01.020Z,0.80
2022-10-25T19:26:29.620Z,2.85
2022-10-25T19:29:01.326Z,3.33
2022-10-25T19:31:30.278Z,1.30
2022-10-25T19:34:00.598Z,1.52
2022-10-25T19:36:28.885Z,0.55
2022-10-25T19:38:58.298Z,1.25
2022-10-25T19:41:27.521Z,1.40
2022-10-25T19:43:57.199Z,1.70
2022-10-25T19:46:25.132Z,1.63
2022-10-25T19:48:53.052Z,3.97
2022-10-25T19:51:21.566Z,2.05
2022-10-25T19:53:50.418Z,2.05
2022-10-25T19:56:21.529Z,2.72
2022-10-25T19:58:49.578Z,0.70
2022-10-25T20:01:19.574Z,5.88
2022-10-25T20:03:50.458Z,12.23
2022-10-25T20:06:24.274Z,2.10
2022-10-25T20:08:53.984Z,3.88
2022-10-25T20:11:24.749Z,4.10
2022-10-25T20:13:54.400Z,1.60
2022-10-25T20:16:23.033Z,6.88
2022-10-25T20:18:51.038Z,32.53
2022-10-25T20:21:21.871Z,18.42
2022-10-25T20:23:55.696Z,14.70
2022-10-25T20:26:27.209Z,12.43
2022-10-25T20:28:55.721Z,11.40
2022-10-25T20:31:24.703Z,9.90
2022-10-25T20:33:53.989Z,7.75
2022-10-25T20:36:22.296Z,14.98
2022-10-25T20:38:50.411Z,11.15
2022-10-25T20:41:21.176Z,9.60
2022-10-25T20:43:52.990Z,27.30
2022-10-25T20:46:22.357Z,9.88
2022-10-25T20:48:50.701Z,11.68
2022-10-25T20:51:19.116Z,11.93
2022-10-25T20:53:48.706Z,10.25
2022-10-25T20:56:16.957Z,12.15
2022-10-25T20:58:45.176Z,9.82
2022-10-25T21:01:14.622Z,7.70
2022-10-25T21:03:42.685Z,3.53
2022-10-25T21:06:12.787Z,2.88
2022-10-25T21:08:41.236Z,2.97
2022-10-25T21:11:11.265Z,2.95
2022-10-25T21:13:39.136Z,3.72
2022-10-25T21:16:08.124Z,2.90
2022-10-25T21:18:37.695Z,3.45
2022-10-25T21:21:07.752Z,3.13
2022-10-25T21:23:36.162Z,1.60
2022-10-25T21:26:05.880Z,2.20
2022-10-25T21:28:35.860Z,2.13
2022-10-25T21:31:04.602Z,1.75
2022-10-25T21:33:32.513Z,2.40
2022-10-25T21:36:05.607Z,2.88
2022-10-25T21:38:33.968Z,1.77
2022-10-25T21:41:10.035Z,1.75
2022-10-25T21:43:38.394Z,2.80
2022-10-25T21:46:07.506Z,1.30
2022-10-25T21:48:36.134Z,4.03
2022-10-25T21:51:05.667Z,2.75
2022-10-25T21:53:33.930Z,1.65
2022-10-25T21:56:07.183Z,1.50
2022-10-25T21:58:35.163Z,3.00
2022-10-25T22:01:03.485Z,3.80
2022-10-25T22:03:31.791Z,0.75
2022-10-25T22:05:59.741Z,2.08
2022-10-25T22:08:29.312Z,2.08
2022-10-25T22:13:27.721Z,3.17
2022-10-25T22:15:57.455Z,1.77
2022-10-25T22:18:25.365Z,1.58
2022-10-25T22:20:58.254Z,2.25
2022-10-25T22:23:29.025Z,0.70
2022-10-25T22:26:00.784Z,0.75
2022-10-25T22:28:28.786Z,0.63
2022-10-25T22:30:59.851Z,0.55
2022-10-25T22:33:27.731Z,2.08
2022-10-25T22:35:55.708Z,1.65
2022-10-25T22:38:23.644Z,0.73
2022-10-25T22:40:59.701Z,2.72
2022-10-25T22:43:28.152Z,2.05
2022-10-25T22:45:56.258Z,3.83
2022-10-25T22:48:24.155Z,2.88
2022-10-25T22:50:53.983Z,2.25
2022-10-25T22:53:22.727Z,2.33
2022-10-25T22:55:59.629Z,2.55
2022-10-25T22:58:29.410Z,1.67
2022-10-25T23:01:06.021Z,2.03
2022-10-25T23:03:34.225Z,2.35
2022-10-25T23:06:03.552Z,1.15
2022-10-25T23:08:32.410Z,2.05
2022-10-25T23:11:03.813Z,1.05
2022-10-25T23:13:33.512Z,2.30
2022-10-25T23:16:01.639Z,5.53
2022-10-25T23:18:29.799Z,2.58
2022-10-25T23:20:59.613Z,1.55
2022-10-25T23:23:29.200Z,1.35
2022-10-25T23:26:00.720Z,1.02
2022-10-25T23:28:31.952Z,1.58
2022-10-25T23:31:05.136Z,0.68
2022-10-25T23:33:33.333Z,1.63
2022-10-25T23:36:06.634Z,1.77
2022-10-25T23:38:34.512Z,0.88
2022-10-25T23:41:02.452Z,0.75
2022-10-25T23:43:32.041Z,0.35
2022-10-25T23:46:00.236Z,0.57
2022-10-25T23:48:28.236Z,0.50
2022-10-25T23:50:57.652Z,0.95
2022-10-25T23:53:25.692Z,1.55
2022-10-25T23:55:53.857Z,0.57
2022-10-25T23:58:22.126Z,0.50
